Μενού       Αρχική   X °F

Select another period ( hide this area )

Units Period Custom range Directly to
Metric English Both
Daily Weekly Monthly Yearly
use both date-selectors for a custom range
previous Day
With this date
Daily Summary for Saturday 23 September 2023
Time Temp. ( °F ) Dew pt. ( °F ) Wind ( mph ) From Gust ( mph ) Pressure ( in ) Humid.( % ) Rainrate ( in )
High76.3 63.7 2.5 WSW ( 165/165 ) 3.7 30.04 66 -
Average74.1 59.5 1.1 WSW #84/100 2.3 30.00 61 -
Low72.5 57.6 -   0.0 29.98 58 -
Daily Tabular details for Saturday 23 September 2023
Time Temp. ( °F ) Dew pt. ( °F ) Wind ( mph ) From Gust ( mph ) Pressure ( in ) Humid.( % ) Rainrate ( in )
00:04 76.3 62.2 1.9 WSW 3.7 30.04 62 -
00:09 76.3 62.2 0.6 WSW 3.1 30.04 62 -
00:14 76.3 61.9 1.2 WSW 2.5 30.04 61 -
00:19 75.9 62.1   Calm 1.9 30.04 62 -
00:24 75.9 62.1 0.6 WSW 2.5 30.04 62 -
00:29 75.7 61.3 1.2 WSW 2.5 30.04 61 -
00:34 75.6 61.2 1.2 WSW 3.7 30.04 61 -
00:39 75.4 61.0 0.6 WSW 3.1 30.04 61 -
00:44 75.4 61.5 1.9 WSW 3.7 30.04 62 -
00:49 75.6 62.6 1.9 WSW 3.7 30.04 64 -
00:54 75.7 63.5 1.9 WSW 3.7 30.03 66 -
00:59 75.7 63.7 1.9 WSW 3.7 30.03 66 -
01:04 75.7 63.1 2.5 WSW 3.7 30.03 65 -
01:09 75.6 62.1 1.9 WSW 3.7 30.03 63 -
01:14 75.6 61.5 1.2 WSW 3.7 30.03 62 -
01:19 75.7 60.8 1.2 WSW 3.1 30.03 60 -
01:24 75.9 61.0   Calm 1.9 30.03 60 -
01:29 75.9 60.4 0.6 WSW 1.2 30.02 59 -
01:34 75.9 60.4   Calm 1.2 30.02 59 -
01:39 75.9 60.4   Calm   30.02 59 -
01:44 75.7 60.4 1.2 WSW 1.2 30.02 59 -
01:49 75.7 60.4 1.2 WSW 3.1 30.02 59 -
01:54 75.6 59.7 1.9 WSW 3.7 30.02 58 -
01:59 75.4 59.5 1.2 WSW 1.9 30.02 58 -
02:04 75.4 59.5 0.6 WSW 1.2 30.02 58 -
02:09 75.2 59.9 1.2 WSW 1.2 30.02 59 -
02:14 75.0 59.7 1.2 WSW 2.5 30.02 59 -
02:19 75.0 59.5 1.2 WSW 2.5 30.01 59 -
02:24 74.8 59.5 0.6 WSW 1.9 30.01 59 -
02:29 74.7 59.4 1.9 WSW 2.5 30.01 59 -
02:34 74.7 59.4 1.2 WSW 2.5 30.01 59 -
02:39 74.7 59.4 1.2 WSW 1.9 30.01 59 -
02:44 74.8 59.5 1.2 WSW 2.5 30.01 59 -
02:49 74.8 59.5 1.2 WSW 2.5 30.01 59 -
02:54 74.7 59.9   Calm 1.2 30.01 60 -
02:59 74.7 60.4   Calm 1.2 30.01 61 -
03:04 74.7 60.3 1.9 WSW 2.5 30.00 61 -
03:09 74.7 59.4 1.2 WSW 2.5 30.00 59 -
03:14 74.8 60.4 1.9 WSW 2.5 30.00 61 -
03:19 74.8 60.4 1.9 WSW 3.7 30.00 61 -
03:24 74.8 60.1 1.2 WSW 3.1 30.00 60 -
03:29 74.8 60.1   Calm 1.9 30.00 60 -
03:34 74.7 59.9 0.6 WSW 1.2 30.00 60 -
03:39 74.5 59.7 1.2 WSW 2.5 30.00 60 -
03:44 74.3 59.5 1.2 WSW 2.5 30.00 60 -
03:49 74.1 59.4 1.2 WSW 1.9 30.00 60 -
03:54 73.9 59.2 1.2 WSW 2.5 30.00 60 -
03:59 73.9 59.2 1.2 WSW 2.5 30.00 60 -
04:04 73.9 58.8 1.9 WSW 3.1 30.00 59 -
04:09 73.9 58.8 1.9 WSW 3.7 29.99 59 -
04:14 73.9 58.6 1.2 WSW 3.1 29.99 59 -
04:19 73.9 59.0 1.2 WSW 2.5 29.99 60 -
04:24 73.8 59.5 1.2 WSW 2.5 29.99 61 -
04:29 73.8 59.5 0.6 WSW 1.9 29.99 61 -
04:34 73.8 58.8 0.6 WSW 1.2 29.99 60 -
04:39 73.6 59.4 1.2 WSW 2.5 29.99 61 -
04:44 73.6 59.7 0.6 WSW 1.9 29.99 62 -
04:49 73.6 59.7 1.9 WSW 3.7 29.99 62 -
04:54 73.6 59.4 1.9 WSW 3.7 29.98 61 -
04:59 73.6 59.4 0.6 WSW 1.9 29.98 61 -
05:04 73.6 59.2 0.6 WSW 1.2 29.98 61 -
05:09 73.4 58.6 0.6 WSW 1.2 29.98 60 -
05:14 73.2 58.8 0.6 WSW 2.5 29.99 61 -
05:19 73.2 59.0 1.2 WSW 1.9 29.99 61 -
05:24 73.2 58.8   Calm   29.99 61 -
05:29 73.2 58.8 1.2 WSW 2.5 29.99 61 -
05:34 73.2 58.5 0.6 WSW 1.9 29.99 60 -
05:39 73.2 58.5   Calm 1.2 29.99 60 -
05:44 73.2 58.5 1.2 WSW 2.5 29.99 60 -
05:49 73.0 58.8 1.2 WSW 1.9 29.99 61 -
05:54 73.0 58.8   Calm 1.2 29.99 61 -
05:59 72.9 59.2 0.6 WSW 1.2 29.99 62 -
06:04 72.9 59.5 0.6 WSW 1.2 29.99 63 -
06:09 72.9 59.5 1.2 WSW 2.5 29.99 63 -
06:14 72.7 59.0 1.2 WSW 2.5 29.99 62 -
06:19 72.7 58.5 1.2 WSW 1.9 29.99 61 -
06:24 72.7 58.5 1.2 WSW 2.5 29.99 61 -
06:29 72.7 58.8 0.6 WSW 1.9 29.99 62 -
06:34 72.7 58.8 1.2 WSW 2.5 29.99 62 -
06:39 72.9 58.6 1.2 WSW 2.5 29.99 61 -
06:44 72.9 58.6 0.6 WSW 1.9 29.99 61 -
06:49 72.9 58.6   Calm 1.2 29.99 61 -
06:54 72.9 58.6 0.6 WSW 1.2 29.99 61 -
06:59 72.9 58.3 1.2 WSW 2.5 29.99 60 -
07:04 72.9 58.3 1.2 WSW 2.5 29.99 60 -
07:09 72.9 58.3 1.2 WSW 2.5 29.99 60 -
07:14 72.9 57.7 0.6 WSW 2.5 29.99 59 -
07:19 73.0 57.7 1.2 WSW 2.5 29.99 59 -
07:24 72.9 57.7 1.2 WSW 2.5 29.99 59 -
07:29 72.9 57.6 1.9 WSW 2.5 29.99 59 -
07:34 72.7 57.6 1.2 WSW 2.5 29.99 59 -
07:39 72.7 57.6   Calm 1.9 29.99 59 -
07:44 72.7 57.9   Calm 1.2 29.99 60 -
07:49 72.7 57.9   Calm 1.2 30.00 60 -
07:54 72.5 58.3   Calm   30.00 61 -
07:59 72.5 58.3   Calm 1.2 30.00 61 -
08:04 72.5 58.3 0.6 WSW 1.2 30.00 61 -
08:09 72.5 58.3 1.2 WSW 2.5 30.00 61 -
08:14 72.5 58.6 1.2 WSW 2.5 30.00 62 -
08:19 72.7 58.8 1.9 WSW 3.7 30.01 62 -

Download your copy of this data-set  from WeatherUnderground

Our weather-data as stored at Weather Underground


MeteoPatras.Eu 2013 - 2023